Hlavní strana
METAR-TAF:

METAR-TAF

Letiště :

Simferopol, Rusko

zeměpisná šířka: 45-03-08N, zeměpisná délka: 033-58-31E, výška: 195 m

Aktuální stav počasí

Zpráva byla vytvořena před 25 minutami, v 03:30 UTC
Východoseverovýchodní vítr 8 kt
Teplota 5°C
Vlhkost vzduchu 65%
Tlak 1024 hPa
Viditelnost 10 km a více
Žádná oblačnost pod 1500 m, nevyskytují se cumulonimby.

METAR: URFF 050330Z 07004MPS CAVOK 05/M01 Q1024 R19/090095 NOSIG

Čas: 06:55 (03:55 UTC)

Předpověď počasí

Zpráva byla vytvořena před 2 hodinami a 5 minutami, v 01:50 UTC
Předpověď platná od 05 v 03 UTC do 06 v 03 UTC
Severovýchodní vítr 10 kt
Viditelnost 10 km a více
Žádná oblačnost pod 1500 m, nevyskytují se cumulonimby.
Od 05 v 0600 UTC
Severovýchodní vítr 17 kt s nárazy do 27 kt
Viditelnost 10 km a více
Polojasno ve výšce 3000 ft, Cumulonimbus.

TAF: URFF 050150Z 0503/0603 05005MPS CAVOK TX14/0510Z TN03/0603Z FM050600 05009G14MPS 9999 SCT030CB

Stav a předpovědi počasí z více než 4 000 letišť (zprávy METAR a TAF).

Červené a žluté tečky na mapě představují dostupné meteorologické stanice.

Když kurzor umístíte na tečku, zobrazí se název stanice.

Pak kliknutím zobrazíte stav a předpověď počasí.

Chcete-li změnit mapu, kliknutím na zelené tlačítko se znaménkem +mapu přiblížíte, kliknutím na zelené tlačítko se znaménkem – mapu oddálíte a kliknutím na zelené šipky přejdete na sousední mapy.


METAR-TAF: